Latest Weather Observations for Cape Sorell

IDT60801

Issued at 9:05 pm EST Thursday 31 July 2014 (issued every 30 minutes, with the page automatically refreshed every 10 minutes)

About weather observations | Map of weather stations | Latest weather observations for TAS | Other Formats
Station Details ID: 097000 Name: CAPE SORELL Lat: -42.20 Lon: 145.17 Height: 19.3 m
Data from the previous 72 hours. | See also: Recent months at Cape Sorell
Date/Time
EST
Temp
°C
App
Temp
°C
Dew
Point
Rel
Hum
%
Delta-T
°C
Wind Press
QNH
hPa
Press
MSL
hPa
Rain
since 9 am
mm
Dir
 
Spd
km/h
Gust
km/h
Spd
kts
Gust
kts
31/09:05pm 6.4 -7.3 3.7 83 1.1 WSW 65 78 35 42 984.9 - 16.2
31/09:01pm 7.2 -10.5 2.7 73 1.9 W 85 107 46 58 984.4 - 15.8
31/09:00pm 8.0 -5.4 3.3 72 2.0 W 63 107 34 58 984.0 984.0 15.8
31/08:30pm 9.1 -3.9 3.5 68 2.5 WNW 61 89 33 48 984.8 - 15.8
31/08:00pm 9.0 -3.9 4.0 71 2.2 WNW 61 80 33 43 984.3 984.3 15.8
31/07:32pm 7.9 -3.5 5.0 82 1.3 WNW 54 72 29 39 983.9 - 15.8
31/07:30pm 7.9 -3.1 5.2 83 1.2 WNW 52 70 28 38 984.0 - 15.8
31/07:09pm 7.6 -4.5 4.4 80 1.4 W 57 83 31 45 983.7 - 15.6
31/07:07pm 7.6 -3.9 4.6 81 1.3 W 54 69 29 37 983.7 - 15.6
31/07:01pm 7.5 -8.2 4.1 79 1.5 W 76 95 41 51 982.9 - 15.6
31/07:00pm 7.6 -8.5 4.4 80 1.4 W 78 95 42 51 982.5 982.5 15.6
31/06:59pm 8.4 -2.1 5.7 83 1.2 W 50 91 27 49 983.2 - 15.6
31/06:50pm 7.9 -2.0 5.0 82 1.3 W 46 65 25 35 983.5 - 15.6
31/06:48pm 7.9 -1.6 5.0 82 1.3 W 44 61 24 33 983.6 - 15.6
31/06:45pm 7.5 -6.5 4.3 80 1.4 W 67 87 36 47 983.0 - 15.6
31/06:44pm 7.7 -6.6 4.5 80 1.4 W 69 87 37 47 982.7 - 15.6
31/06:40pm 8.3 -6.8 5.4 82 1.3 WNW 74 85 40 46 982.8 - 15.6
31/06:30pm 8.4 -2.5 5.5 82 1.3 W 52 70 28 38 983.3 - 15.4
31/06:00pm 8.9 -2.9 5.5 79 1.6 WNW 57 80 31 43 983.0 983.0 15.4
31/05:31pm 7.6 -5.6 4.7 82 1.3 WNW 63 83 34 45 981.9 - 15.4
31/05:30pm 7.7 -5.8 4.8 82 1.3 WNW 65 83 35 45 982.0 - 15.4
31/05:00pm 9.8 -2.2 4.6 70 2.4 NW 57 85 31 46 981.7 981.7 14.8
31/04:30pm 9.3 -2.5 5.7 78 1.6 NW 57 76 31 41 981.7 - 14.8
31/04:17pm 8.9 -2.6 6.2 83 1.2 NW 56 82 30 44 981.6 - 14.8
31/04:15pm 8.7 -2.5 6.0 83 1.2 NW 54 70 29 38 981.7 - 14.8
31/04:00pm 8.3 -7.4 6.1 86 1.0 WNW 78 104 42 56 981.4 981.4 14.8
31/03:56pm 8.0 -9.2 5.3 83 1.2 WNW 85 104 46 56 981.1 - 14.8
31/03:54pm 8.6 -8.9 5.9 83 1.3 WNW 87 104 47 56 980.6 - 14.6
31/03:52pm 9.3 -3.4 6.7 84 1.2 NW 63 102 34 55 981.1 - 14.6
31/03:30pm 9.2 -1.9 8.0 92 0.6 NW 56 83 30 45 981.2 - 14.6
31/03:24pm 8.6 -4.0 7.4 92 0.6 NW 63 83 34 45 980.9 - 14.6
31/03:22pm 8.7 -4.6 7.6 93 0.5 NW 67 83 36 45 980.6 - 14.6
31/03:07pm 8.4 -1.3 7.5 94 0.4 NNW 48 70 26 38 980.9 - 14.6
31/03:00pm 8.4 -1.7 7.6 95 0.4 NNW 50 65 27 35 981.1 981.1 14.4
31/02:44pm 8.8 0.0 8.0 95 0.4 NW 44 67 24 36 981.0 - 14.2
31/02:30pm 8.8 0.0 8.0 95 0.4 NNW 44 59 24 32 981.8 - 13.2
31/02:05pm 8.4 -0.5 7.6 95 0.4 N 44 65 24 35 981.5 - 12.4
31/02:00pm 8.6 0.0 8.0 96 0.3 N 43 52 23 28 981.7 981.7 12.2
31/01:30pm 7.9 0.7 7.6 98 0.1 N 35 43 19 23 982.8 - 12.2
31/01:00pm 6.6 0.8 6.3 98 0.1 NE 26 35 14 19 982.4 982.4 12.2
31/12:30pm 5.9 0.7 5.5 97 0.2 E 22 33 12 18 983.0 - 12.0
31/12:00pm 6.4 3.8 6.0 97 0.2 E 9 19 5 10 984.8 984.8 10.6
31/11:43am 7.7 2.9 7.4 98 0.1 S 22 28 12 15 983.6 - 10.4
31/11:30am 7.6 -1.2 7.3 98 0.1 SW 43 52 23 28 983.7 - 10.2
31/11:00am 7.4 -1.1 7.1 98 0.1 SSW 41 48 22 26 984.3 984.3 9.0
31/10:30am 7.5 -1.9 7.2 98 0.1 SSW 46 52 25 28 983.2 - 8.4
31/10:02am 8.7 2.6 8.3 97 0.2 SW 30 54 16 29 984.0 - 6.2
31/10:00am 8.6 3.2 8.0 96 0.3 WSW 26 37 14 20 984.2 984.2 6.0
31/09:30am 8.9 7.1 8.1 95 0.4 SSW 7 11 4 6 984.9 - 2.6
31/09:00am 8.7 7.1 7.9 95 0.4 NE 6 11 3 6 985.7 985.7 15.4
31/08:30am 8.8 5.5 7.9 94 0.4 N 15 20 8 11 986.3 - 13.6
31/08:00am 8.7 5.4 7.9 95 0.4 NNW 15 20 8 11 986.5 986.5 13.0
31/07:30am 8.8 6.3 8.0 95 0.4 WNW 11 19 6 10 987.5 - 12.0
31/07:00am 8.8 3.0 8.0 95 0.4 W 28 43 15 23 988.1 988.1 11.6
31/06:30am 9.0 4.1 8.4 96 0.3 WNW 24 32 13 17 989.3 - 10.6
31/06:00am 9.1 5.2 8.6 97 0.2 NW 19 28 10 15 988.9 988.9 10.2
31/05:30am 9.2 6.5 8.9 98 0.1 NW 13 22 7 12 989.6 - 10.2
31/05:00am 8.8 5.2 8.5 98 0.1 W 17 30 9 16 990.3 990.3 9.6
31/04:30am 9.0 4.9 8.7 98 0.1 W 20 30 11 16 990.3 - 8.8
31/04:00am 9.0 3.8 8.7 98 0.1 SW 26 35 14 19 990.7 990.7 8.6
31/03:30am 9.1 0.1 8.8 98 0.1 SW 46 57 25 31 990.7 - 8.6
31/03:00am 9.0 -2.0 8.4 96 0.3 SW 56 72 30 39 989.9 989.9 7.4
31/02:57am 9.1 -1.5 8.3 95 0.4 SW 54 72 29 39 989.9 - 7.2
31/02:43am 10.9 3.5 9.8 93 0.6 WSW 39 52 21 28 989.6 - 5.4
31/02:30am 11.6 3.6 10.5 93 0.6 WNW 43 57 23 31 990.0 - 4.4
31/02:00am 11.5 3.5 10.6 94 0.5 WNW 43 65 23 35 990.8 990.8 4.2
31/01:40am 11.4 3.8 10.5 94 0.5 WNW 41 59 22 32 991.5 - 4.2
31/01:30am 11.2 3.2 10.3 94 0.5 W 43 59 23 32 991.2 - 4.2
31/01:01am 11.1 0.3 10.0 93 0.6 WNW 57 76 31 41 991.1 - 3.6
31/01:00am 11.1 -0.1 10.0 93 0.6 WNW 59 76 32 41 991.1 991.1 3.6
31/12:49am 10.6 -2.3 9.0 90 0.8 WNW 67 87 36 47 991.4 - 3.0
31/12:48am 10.6 -3.3 9.0 90 0.8 WNW 72 87 39 47 991.2 - 3.0
31/12:40am 12.4 0.7 9.2 81 1.6 NNW 61 96 33 52 990.9 - 2.4
31/12:30am 14.0 3.5 11.0 82 1.6 NNW 57 78 31 42 990.4 - 2.0
31/12:17am 13.7 3.8 11.0 84 1.4 NW 54 74 29 40 990.8 - 2.0
31/12:00am 13.8 5.0 10.8 82 1.6 NW 48 63 26 34 991.3 991.3 2.0
 
Date/Time
EST
Temp
°C
App
Temp
°C
Dew
Point
Rel
Hum
%
Delta-T
°C
Wind Press
QNH
hPa
Press
MSL
hPa
Rain
since 9 am
mm
Dir
 
Spd
km/h
Gust
km/h
Spd
kts
Gust
kts
30/11:33pm 14.0 3.3 10.2 78 2.0 NNW 57 78 31 42 991.7 - 2.0
30/11:30pm 14.0 3.3 10.2 78 2.0 NNW 57 72 31 39 991.5 - 2.0
30/11:00pm 13.7 3.2 10.3 80 1.8 NNW 56 74 30 40 992.1 992.1 2.0
30/10:31pm 13.1 4.1 10.1 82 1.5 NW 48 69 26 37 992.9 - 2.0
30/10:30pm 13.1 3.7 10.1 82 1.5 NW 50 69 27 37 992.8 - 2.0
30/10:00pm 13.3 2.5 9.9 80 1.8 NW 57 82 31 44 993.3 993.3 2.0
30/09:53pm 13.2 1.6 9.6 79 1.8 NW 61 82 33 44 993.2 - 2.0
30/09:30pm 13.8 4.6 9.6 76 2.2 NW 48 65 26 35 993.3 - 2.0
30/09:00pm 13.7 4.0 9.2 74 2.3 NW 50 70 27 38 993.9 993.9 2.0
30/08:31pm 13.6 3.3 9.6 77 2.0 NW 54 76 29 41 993.8 - 2.0
30/08:30pm 13.7 3.8 9.7 77 2.1 NW 52 70 28 38 993.9 - 2.0
30/08:00pm 14.1 1.7 9.5 74 2.4 NNW 65 87 35 47 993.8 993.8 2.0
30/07:30pm 13.9 2.0 10.1 78 2.0 NW 63 85 34 46 994.2 - 2.0
30/07:00pm 13.6 2.4 11.1 85 1.3 NNW 61 85 33 46 993.7 993.7 2.0
30/06:30pm 13.2 3.3 11.1 87 1.1 NNW 54 83 29 45 993.7 - 1.8
30/06:16pm 13.1 4.3 10.8 86 1.2 NNW 48 69 26 37 994.2 - 1.8
30/06:00pm 13.7 5.5 10.3 80 1.8 NW 44 59 24 32 994.8 994.8 1.6
30/05:34pm 13.8 6.1 10.2 79 1.9 NW 41 61 22 33 995.3 - 1.6
30/05:30pm 13.9 5.9 10.3 79 1.9 NW 43 61 23 33 995.5 - 1.6
30/05:00pm 13.6 4.2 10.0 79 1.9 NW 50 70 27 38 995.6 995.6 1.6
30/04:30pm 13.6 2.8 9.8 78 2.0 WNW 57 82 31 44 995.9 - 1.6
30/04:00pm 13.2 1.5 10.7 85 1.3 WNW 63 91 34 49 995.3 995.3 1.6
30/03:56pm 13.1 2.5 10.8 86 1.2 NW 57 91 31 49 995.1 - 1.6
30/03:30pm 12.9 4.1 11.1 89 0.9 NW 48 69 26 37 995.2 - 1.4
30/03:00pm 12.9 4.2 11.3 90 0.9 NW 48 74 26 40 995.6 995.6 1.4
30/02:30pm 12.6 3.4 10.8 89 0.9 NW 50 72 27 39 995.7 - 1.4
30/02:00pm 13.6 3.9 10.4 81 1.7 NW 52 72 28 39 995.9 995.9 1.2
30/01:54pm 13.5 1.7 10.3 81 1.7 WNW 63 72 34 39 995.6 - 1.2
30/01:30pm 13.4 5.4 10.6 83 1.5 NW 43 61 23 33 996.1 - 1.2
30/01:00pm 13.0 2.9 10.4 84 1.4 WNW 54 74 29 40 996.7 996.7 1.2
30/12:30pm 12.6 1.6 10.5 87 1.1 WNW 59 82 32 44 996.8 - 1.2
30/12:00pm 12.8 1.1 10.7 87 1.1 WNW 63 85 34 46 997.1 997.1 0.8
30/11:30am 12.6 3.7 10.5 87 1.1 NW 48 74 26 40 997.9 - 0.4
30/11:12am 13.2 4.8 9.8 80 1.7 NW 44 63 24 34 997.8 - 0.0
30/11:00am 13.4 4.6 9.6 78 2.0 NW 46 63 25 34 998.1 998.1 0.0
30/10:30am 13.3 3.7 9.5 78 1.9 NW 50 72 27 39 998.4 - 0.0
30/10:00am 13.3 2.7 10.1 81 1.7 WNW 56 80 30 43 998.7 998.7 0.0
30/09:30am 13.4 3.8 9.5 77 2.0 WNW 50 76 27 41 998.6 - 0.0
30/09:00am 12.5 2.8 9.0 79 1.8 WNW 50 76 27 41 998.4 998.4 3.8
30/08:47am 13.0 3.6 8.7 75 2.2 WNW 48 67 26 36 998.7 - 3.8
30/08:30am 12.6 1.6 8.5 76 2.0 WNW 56 74 30 40 998.7 - 3.8
30/08:11am 12.4 1.8 8.3 76 2.0 WNW 54 74 29 40 998.7 - 3.8
30/08:00am 12.1 0.1 8.4 78 1.8 WNW 61 78 33 42 998.5 998.5 3.8
30/07:35am 12.8 1.6 8.5 75 2.1 WNW 57 83 31 45 998.0 - 3.8
30/07:30am 12.8 1.6 8.5 75 2.1 WNW 57 74 31 40 998.3 - 3.6
30/07:07am 12.2 3.0 8.1 76 2.0 WNW 46 67 25 36 998.3 - 3.6
30/07:00am 12.4 2.1 8.1 75 2.1 WNW 52 69 28 37 998.7 998.7 3.6
30/06:43am 12.2 1.7 7.5 73 2.3 WNW 52 70 28 38 998.5 - 3.6
30/06:30am 11.8 0.6 7.5 75 2.1 WNW 56 72 30 39 998.0 - 3.6
30/06:00am 12.3 2.6 7.6 73 2.3 WNW 48 69 26 37 998.3 998.3 3.4
30/05:36am 11.6 0.3 7.3 75 2.1 WNW 56 63 30 34 998.1 - 3.4
30/05:30am 11.3 4.0 7.2 76 2.0 WNW 35 59 19 32 998.4 - 3.4
30/05:02am 11.9 4.5 6.6 70 2.5 WNW 35 57 19 31 998.6 - 3.2
30/05:00am 12.0 5.0 6.9 71 2.5 W 33 48 18 26 998.7 998.7 3.2
30/04:30am 11.6 3.2 5.5 66 2.8 W 39 56 21 30 999.0 - 3.2
30/04:00am 11.6 2.4 5.3 65 2.9 W 43 63 23 34 998.8 998.8 3.2
30/03:30am 11.4 0.7 4.8 64 3.0 W 50 69 27 37 998.8 - 3.2
30/03:00am 11.5 -0.1 5.8 68 2.7 W 56 78 30 42 998.9 998.9 3.2
30/02:30am 11.8 -0.6 6.3 69 2.6 WSW 61 82 33 44 998.5 - 3.2
30/02:00am 11.9 0.4 6.2 68 2.7 W 56 78 30 42 998.3 998.3 3.2
30/01:30am 11.7 -1.9 6.0 68 2.7 W 67 87 36 47 996.8 - 3.2
30/01:00am 11.7 -0.7 6.4 70 2.5 W 61 85 33 46 996.8 996.8 3.2
30/12:30am 11.1 -2.3 7.2 77 1.9 W 67 87 36 47 996.1 - 3.2
30/12:00am 11.7 0.3 7.6 76 2.0 W 57 78 31 42 996.0 996.0 2.8
 
Date/Time
EST
Temp
°C
App
Temp
°C
Dew
Point
Rel
Hum
%
Delta-T
°C
Wind Press
QNH
hPa
Press
MSL
hPa
Rain
since 9 am
mm
Dir
 
Spd
km/h
Gust
km/h
Spd
kts
Gust
kts
29/11:30pm 11.9 -1.1 7.4 74 2.2 W 65 91 35 49 995.1 - 2.6
29/11:00pm 12.0 -1.3 5.9 66 2.9 W 65 91 35 49 994.7 994.7 2.6
29/10:30pm 12.4 -0.7 6.9 69 2.6 W 65 91 35 49 994.4 - 2.6
29/10:00pm 12.2 -1.8 6.3 67 2.8 W 69 93 37 50 994.3 994.3 2.6
29/09:30pm 11.9 -0.4 6.8 71 2.4 W 61 87 33 47 993.7 - 2.6
29/09:00pm 11.8 -0.5 6.9 72 2.4 W 61 83 33 45 993.4 993.4 2.6
29/08:30pm 10.4 -1.5 6.9 79 1.7 W 59 91 32 49 992.5 - 2.6
29/08:00pm 12.8 -0.2 7.0 68 2.8 WNW 65 87 35 47 992.2 992.2 2.2
29/07:30pm 12.7 -0.4 6.7 67 2.9 W 65 93 35 50 991.6 - 2.2
29/07:00pm 12.7 -0.3 7.2 69 2.7 W 65 85 35 46 991.2 991.2 2.2
29/06:30pm 12.5 -1.4 7.2 70 2.6 W 70 91 38 49 990.7 - 2.2
29/06:00pm 12.0 0.1 8.7 80 1.7 WNW 61 93 33 50 989.9 989.9 2.2
29/05:30pm 10.7 -2.6 9.0 89 0.8 WNW 69 98 37 53 990.1 - 2.2
29/05:00pm 13.0 -1.2 9.1 77 2.0 WNW 74 96 40 52 988.6 988.6 1.6
29/04:43pm 13.6 -1.2 9.8 78 2.0 WNW 78 98 42 53 988.4 - 1.4
29/04:30pm 13.4 2.6 9.8 79 1.8 NW 57 82 31 44 988.8 - 1.4
29/04:26pm 13.8 3.9 9.8 77 2.1 NW 52 76 28 41 989.0 - 1.4
29/04:09pm 13.6 0.0 10.2 80 1.8 WNW 72 91 39 49 988.3 - 1.4
29/04:07pm 13.6 -1.1 10.2 80 1.8 WNW 78 91 42 49 987.9 - 1.4
29/04:03pm 13.7 3.1 10.5 81 1.7 NW 57 80 31 43 988.3 - 1.4
29/04:00pm 13.8 -0.8 10.6 81 1.7 WNW 78 111 42 60 987.7 987.7 1.4
29/03:43pm 13.1 -2.3 11.0 87 1.1 WNW 83 104 45 56 987.8 - 1.4
29/03:30pm 13.3 2.5 11.2 87 1.1 NW 59 89 32 48 988.5 - 1.4
29/03:00pm 12.9 0.2 11.3 90 0.9 WNW 69 93 37 50 987.8 987.8 1.4
29/02:46pm 12.7 1.5 11.3 91 0.7 NW 61 107 33 58 987.2 - 1.4
29/02:33pm 12.6 2.2 10.5 87 1.1 NW 56 76 30 41 988.3 - 1.0
29/02:30pm 12.7 1.7 10.4 86 1.2 NW 59 76 32 41 988.5 - 0.8
29/02:00pm 13.6 3.0 9.8 78 2.0 NW 56 78 30 42 988.9 988.9 0.8
29/01:30pm 13.5 3.5 9.4 76 2.1 NW 52 74 28 40 989.7 - 0.8
29/01:00pm 13.1 4.3 9.4 78 1.9 NW 46 65 25 35 990.5 990.5 0.6
29/12:30pm 13.3 3.2 9.0 75 2.2 NW 52 80 28 43 991.1 - 0.6
29/12:00pm 12.4 2.1 8.3 76 2.0 NW 52 85 28 46 991.8 991.8 0.6
29/11:38am 13.0 3.2 8.5 74 2.2 NW 50 74 27 40 991.8 - 0.6
29/11:30am 13.2 2.7 8.9 75 2.2 NW 54 70 29 38 991.7 - 0.6
29/11:00am 12.2 2.2 9.4 83 1.4 NW 52 74 28 40 991.8 991.8 0.6
29/10:52am 11.7 2.3 8.9 83 1.4 NW 48 69 26 37 992.2 - 0.6
29/10:42am 11.1 1.6 8.3 83 1.4 NW 48 63 26 34 992.3 - 0.6
29/10:30am 10.7 -3.0 7.6 81 1.5 WNW 69 96 37 52 992.2 - 0.6
29/10:00am 12.0 0.1 8.7 80 1.7 WNW 61 87 33 47 991.9 991.9 0.2
29/09:32am 12.0 1.3 9.6 85 1.2 WNW 56 74 30 40 992.5 - 0.2
29/09:30am 12.0 1.1 9.6 85 1.2 WNW 57 74 31 40 992.3 - 0.2
29/09:17am 11.9 0.9 8.6 80 1.6 WNW 56 74 30 40 992.1 - 0.0
29/09:14am 12.5 0.7 9.1 80 1.7 WNW 61 74 33 40 991.9 - 0.0
29/09:00am 13.0 5.1 9.4 79 1.8 NW 41 63 22 34 992.7 992.7 12.4
29/08:59am 13.0 5.1 9.4 79 1.8 NW 41 63 22 34 992.6 - 12.4
29/08:58am 13.0 5.9 9.4 79 1.8 NW 37 52 20 28 992.7 - 12.4
29/08:30am 12.8 1.7 8.9 77 2.0 WNW 57 85 31 46 992.3 - 12.4
29/08:00am 11.1 0.2 8.8 86 1.2 WNW 56 91 30 49 992.2 992.2 12.4
29/07:31am 12.4 3.3 11.1 92 0.7 NW 50 76 27 41 992.1 - 12.2
29/07:30am 12.5 3.8 11.2 92 0.7 NW 48 67 26 36 992.3 - 12.2
29/07:23am 12.4 4.4 11.1 92 0.7 NW 44 67 24 36 992.2 - 12.2
29/07:00am 12.9 5.1 11.8 93 0.6 NW 44 59 24 32 992.1 992.1 12.2
29/06:32am 12.9 4.4 12.0 94 0.5 NW 48 67 26 36 992.1 - 12.2
29/06:30am 12.8 3.9 11.9 94 0.5 NW 50 67 27 36 992.1 - 12.2
29/06:00am 13.1 1.8 12.0 93 0.6 NNW 63 85 34 46 991.6 991.6 11.8
29/05:30am 13.1 1.1 12.3 95 0.4 NNW 67 89 36 48 991.4 - 11.8
29/05:19am 12.8 4.4 12.2 96 0.3 NW 48 70 26 38 992.0 - 11.2
29/05:14am 11.6 3.4 10.5 93 0.6 NW 44 61 24 33 992.5 - 10.8
29/05:11am 11.1 -2.3 9.5 90 0.8 WNW 70 93 38 50 991.4 - 10.6
29/05:10am 10.9 1.6 9.3 90 0.8 NW 48 93 26 50 991.7 - 10.4
29/05:01am 12.9 4.7 11.6 92 0.7 NNW 46 67 25 36 992.3 - 7.4
29/05:00am 12.9 4.3 11.6 92 0.7 NNW 48 67 26 36 992.3 992.3 7.2
29/04:30am 13.1 4.5 11.7 91 0.7 NNW 48 70 26 38 993.0 - 6.4
29/04:10am 12.8 1.5 11.0 89 0.9 NNW 61 80 33 43 993.4 - 6.4
29/04:08am 12.9 0.5 11.1 89 0.9 N 67 80 36 43 992.9 - 6.2
29/04:00am 13.2 5.3 11.4 89 1.0 NNW 44 65 24 35 993.9 993.9 6.2
29/03:32am 12.7 4.8 10.9 89 0.9 NNW 43 61 23 33 994.4 - 6.2
29/03:30am 12.7 4.3 10.9 89 0.9 NNW 46 63 25 34 994.6 - 5.8
29/03:08am 13.4 4.7 11.3 87 1.1 NNW 48 69 26 37 995.3 - 5.6
29/03:00am 13.3 4.2 11.4 88 1.0 NNW 50 67 27 36 995.4 995.4 5.6
29/02:30am 12.4 4.3 10.6 89 0.9 NNW 44 61 24 33 996.5 - 5.6
29/02:16am 13.0 4.6 10.9 87 1.1 NNW 46 67 25 36 996.5 - 5.4
29/02:00am 13.2 4.4 10.9 86 1.2 NNW 48 67 26 36 996.8 996.8 5.4
29/01:30am 12.8 4.1 11.2 90 0.8 NNW 48 67 26 36 997.5 - 5.2
29/01:10am 12.9 4.1 11.0 88 1.0 NNW 48 69 26 37 997.7 - 5.0
29/01:00am 12.7 4.6 10.9 89 0.9 NNW 44 57 24 31 998.1 998.1 5.0
29/12:38am 12.6 4.1 10.5 87 1.1 NNW 46 67 25 36 998.6 - 4.6
29/12:30am 12.9 3.9 10.4 85 1.3 NNW 48 67 26 36 998.5 - 4.4
29/12:20am 12.9 4.2 10.1 83 1.4 NNW 46 67 25 36 998.8 - 4.4
29/12:00am 13.3 4.8 10.5 83 1.5 NNW 46 65 25 35 998.8 998.8 4.2
 
Date/Time
EST
Temp
°C
App
Temp
°C
Dew
Point
Rel
Hum
%
Delta-T
°C
Wind Press
QNH
hPa
Press
MSL
hPa
Rain
since 9 am
mm
Dir
 
Spd
km/h
Gust
km/h
Spd
kts
Gust
kts
28/11:30pm 13.3 5.1 10.5 83 1.5 NNW 44 63 24 34 999.6 - 4.2
28/11:00pm 13.2 5.1 10.7 85 1.3 NNW 44 63 24 34 1000.2 1000.2 4.2
28/10:34pm 13.0 5.0 11.1 88 1.0 NNW 44 63 24 34 1000.2 - 4.2
28/10:30pm 13.0 5.2 11.1 88 1.0 NNW 43 61 23 33 1000.2 - 4.2
28/10:03pm 12.3 4.9 9.9 85 1.2 NNW 39 59 21 32 1000.6 - 4.2
28/10:00pm 12.8 5.9 10.2 84 1.3 NNW 37 52 20 28 1000.6 1000.6 3.8
28/09:30pm 13.2 7.0 10.2 82 1.6 NNW 33 50 18 27 1001.5 - 3.4
28/09:23pm 13.3 6.0 10.3 82 1.6 NNW 39 57 21 31 1001.7 - 3.4

Other Formats:

Comma delimited format used in spreadsheet applications
http://www.bom.gov.au/fwo/IDT60801/IDT60801.94974.axf

JavaScript Object Notation format (JSON) in row-major order
http://www.bom.gov.au/fwo/IDT60801/IDT60801.94974.json